Time;durP1;ratioP1;P1;durP2;ratioP2;P2;SDS_P1;SDS_P2;PMS_P1;PMS_P2;Temp;Humidity;BMP_temperature;BMP_pressure;BME280_temperature;BME280_humidity;BME280_pressure;Samples;Min_cycle;Max_cycle;Signal;HPM_P1;HPM_P2
2023/06/12 00:00:54;;;;;;;;;;;;;;;24.07;33.11;100443.38;4929425;28;7310;-87
2023/06/12 00:03:25;;;;;;;;;;;;;;;24.03;33.08;100444.25;4933874;28;6792;-87
2023/06/12 00:05:52;;;;;;;;;;;;;;;23.97;33.71;100445.16;4922862;28;6816;-90
2023/06/12 00:08:19;;;;;;;;;;;;;;;23.87;33.87;100440.88;4933429;28;7232;-90
2023/06/12 00:10:47;;;;;;;;;;;;;;;23.80;33.92;100444.41;4925985;28;6982;-91
2023/06/12 00:13:14;;;;;;;;;;;;;;;23.74;34.49;100444.44;4927569;28;7070;-90
2023/06/12 00:15:40;;;;;;;;;;;;;;;23.66;34.12;100447.97;4919667;29;8404;-90
2023/06/12 00:18:05;;;;;;;;;;;;;;;23.58;34.25;100442.78;4935285;28;7190;-91
2023/06/12 00:20:32;;;;;;;;;;;;;;;23.55;34.39;100445.41;4938297;28;7127;-90
2023/06/12 00:22:58;;;;;;;;;;;;;;;23.51;34.75;100442.81;4931804;28;8486;-91
2023/06/12 00:25:28;;;;;;;;;;;;;;;23.48;34.85;100446.31;4934000;28;8703;-89
2023/06/12 00:27:54;;;;;;;;;;;;;;;23.46;34.71;100442.84;4936361;28;10264;-88
2023/06/12 00:30:21;;;;;;;;;;;;;;;23.46;34.60;100441.97;4934619;28;8489;-87
2023/06/12 00:32:47;;;;;;;;;;;;;;;23.48;34.57;100448.94;4928428;28;8964;-87
2023/06/12 00:35:18;;;;;;;;;;;;;;;23.49;34.33;100448.03;4927614;28;8566;-91
2023/06/12 00:37:48;;;;;;;;;;;;;;;23.50;34.74;100446.31;4918991;28;8873;-91
2023/06/12 00:40:15;;;;;;;;;;;;;;;23.48;34.70;100442.84;4929688;28;8382;-89
2023/06/12 00:42:51;;;;;;;;;;;;;;;23.42;34.76;100447.22;4924120;28;7195;-91
2023/06/12 00:45:23;;;;;;;;;;;;;;;23.39;34.58;100448.97;4937583;28;8417;-91
2023/06/12 00:47:53;;;;;;;;;;;;;;;23.33;34.56;100449.88;4926735;29;7056;-90
2023/06/12 00:50:25;;;;;;;;;;;;;;;23.30;34.63;100445.50;4923229;28;8419;-90
2023/06/12 00:52:53;;;;;;;;;;;;;;;23.27;34.86;100445.50;4918962;29;7220;-90
2023/06/12 00:55:20;;;;;;;;;;;;;;;23.23;34.47;100445.50;4930675;28;6800;-91
2023/06/12 00:57:47;;;;;;;;;;;;;;;23.21;34.42;100444.66;4932182;28;7193;-85
2023/06/12 01:00:17;;;;;;;;;;;;;;;23.20;34.77;100445.53;4931301;28;8535;-86
2023/06/12 01:02:51;;;;;;;;;;;;;;;23.20;34.40;100440.31;4933346;28;8939;-87
2023/06/12 01:05:32;;;;;;;;;;;;;;;23.23;34.48;100440.28;4924085;28;8465;-89
2023/06/12 01:08:24;;;;;;;;;;;;;;;23.27;34.36;100440.28;4916805;28;8359;-90
2023/06/12 01:11:11;;;;;;;;;;;;;;;23.29;34.02;100432.47;4936246;28;8521;-91
2023/06/12 01:13:37;;;;;;;;;;;;;;;23.34;33.82;100429.84;4939249;28;8702;-90
2023/06/12 01:16:03;;;;;;;;;;;;;;;23.35;33.90;100424.56;4932706;29;8426;-89
2023/06/12 01:18:32;;;;;;;;;;;;;;;23.35;34.18;100432.41;4938332;28;6792;-91
2023/06/12 01:21:03;;;;;;;;;;;;;;;23.34;33.96;100430.69;4935302;28;7033;-91
2023/06/12 01:24:05;;;;;;;;;;;;;;;23.35;33.61;100424.56;4934148;28;6820;-90
2023/06/12 01:27:38;;;;;;;;;;;;;;;23.30;34.09;100421.97;4933072;28;8789;-88
2023/06/12 01:30:46;;;;;;;;;;;;;;;23.25;34.42;100422.84;4922735;28;8565;-89
2023/06/12 01:33:20;;;;;;;;;;;;;;;23.22;33.76;100420.25;4915549;29;13160;-85
2023/06/12 01:35:51;;;;;;;;;;;;;;;23.20;33.72;100424.63;4936912;28;6809;-89
2023/06/12 01:38:20;;;;;;;;;;;;;;;23.16;33.87;100422.00;4920549;28;8843;-89
2023/06/12 01:40:51;;;;;;;;;;;;;;;23.14;33.65;100428.97;4932915;28;6816;-89
2023/06/12 01:43:19;;;;;;;;;;;;;;;23.11;34.03;100410.72;4939989;28;8684;-90
2023/06/12 01:45:45;;;;;;;;;;;;;;;23.11;33.99;100420.28;4919030;28;7058;-91
2023/06/12 01:48:10;;;;;;;;;;;;;;;23.09;34.33;100415.09;4924520;28;8843;-90
2023/06/12 01:50:36;;;;;;;;;;;;;;;23.06;34.42;100415.06;4934634;28;6768;-88
2023/06/12 01:53:02;;;;;;;;;;;;;;;23.02;34.49;100413.34;4928226;28;8478;-88
2023/06/12 01:55:29;;;;;;;;;;;;;;;22.98;34.42;100412.50;4937665;28;6788;-89
2023/06/12 01:57:54;;;;;;;;;;;;;;;22.96;34.21;100419.47;4937307;28;7343;-89
2023/06/12 02:00:20;;;;;;;;;;;;;;;22.94;34.22;100418.63;4920800;28;8586;-89
2023/06/12 02:02:46;;;;;;;;;;;;;;;22.92;34.15;100417.72;4938797;28;6823;-82
2023/06/12 02:05:12;;;;;;;;;;;;;;;22.91;34.21;100417.75;4931879;28;8606;-89
2023/06/12 02:07:38;;;;;;;;;;;;;;;22.86;34.53;100417.75;4925475;28;8887;-87
2023/06/12 02:10:04;;;;;;;;;;;;;;;22.80;34.65;100410.81;4936255;28;8500;-83
2023/06/12 02:12:32;;;;;;;;;;;;;;;22.74;34.68;100416.94;4936003;28;6788;-86
2023/06/12 02:15:00;;;;;;;;;;;;;;;22.67;34.57;100406.47;4940393;28;9023;-88
2023/06/12 02:17:26;;;;;;;;;;;;;;;22.60;35.23;100409.13;4936324;28;8557;-88
2023/06/12 02:19:52;;;;;;;;;;;;;;;22.54;34.86;100416.06;4917870;28;7147;-84
2023/06/12 02:22:17;;;;;;;;;;;;;;;22.48;34.90;100417.78;4934584;28;6808;-90
2023/06/12 02:24:43;;;;;;;;;;;;;;;22.43;34.98;100416.06;4935945;28;8503;-86
2023/06/12 02:27:10;;;;;;;;;;;;;;;22.40;35.11;100421.25;4936266;28;8746;-91
2023/06/12 02:29:35;;;;;;;;;;;;;;;22.36;35.70;100416.94;4940825;28;6820;-88
2023/06/12 02:32:01;;;;;;;;;;;;;;;22.31;35.11;100417.81;4929188;28;6817;-89
2023/06/12 02:34:26;;;;;;;;;;;;;;;22.26;35.22;100418.66;4937175;28;8675;-89
2023/06/12 02:36:52;;;;;;;;;;;;;;;22.18;35.43;100413.44;4933317;28;8461;-91
2023/06/12 02:39:18;;;;;;;;;;;;;;;22.11;35.61;100412.56;4933526;28;6852;-87
2023/06/12 02:41:47;;;;;;;;;;;;;;;22.06;35.57;100407.34;4923302;28;8306;-87
2023/06/12 02:44:13;;;;;;;;;;;;;;;22.01;35.84;100405.63;4933091;28;8583;-91
2023/06/12 02:46:58;;;;;;;;;;;;;;;21.93;36.04;100410.84;4934897;28;8440;-87
2023/06/12 02:49:27;;;;;;;;;;;;;;;21.82;36.24;100420.34;4923778;28;8536;-89
2023/06/12 02:51:53;;;;;;;;;;;;;;;21.73;36.26;100416.91;4928468;28;8801;-88
2023/06/12 02:54:21;;;;;;;;;;;;;;;21.68;36.47;100417.72;4925152;28;8482;-88
2023/06/12 02:56:46;;;;;;;;;;;;;;;21.62;36.58;100415.94;4927118;28;8543;-90
2023/06/12 02:59:23;;;;;;;;;;;;;;;21.58;36.39;100424.63;4924527;28;9045;-91
2023/06/12 03:01:50;;;;;;;;;;;;;;;21.51;36.90;100422.00;4922411;28;8538;-81
2023/06/12 03:04:19;;;;;;;;;;;;;;;21.44;36.90;100425.47;4920298;28;8562;-82
2023/06/12 03:06:47;;;;;;;;;;;;;;;21.38;37.22;100425.44;4922109;28;8518;-82
2023/06/12 03:09:15;;;;;;;;;;;;;;;21.31;37.33;100426.28;4907501;28;8602;-82
2023/06/12 03:11:45;;;;;;;;;;;;;;;21.24;37.20;100428.00;4937732;28;8450;-82
2023/06/12 03:14:14;;;;;;;;;;;;;;;21.19;37.73;100429.69;4921548;28;8368;-82
2023/06/12 03:16:40;;;;;;;;;;;;;;;21.13;37.68;100427.06;4939549;28;8533;-82
2023/06/12 03:19:07;;;;;;;;;;;;;;;21.07;38.16;100420.97;4938390;28;8356;-82
2023/06/12 03:21:32;;;;;;;;;;;;;;;21.07;37.90;100430.53;4915911;28;7219;-85
2023/06/12 03:23:59;;;;;;;;;;;;;;;21.08;37.70;100425.31;4935365;28;6976;-81
2023/06/12 03:26:30;;;;;;;;;;;;;;;21.15;37.83;100428.84;4931420;28;6959;-82
2023/06/12 03:28:56;;;;;;;;;;;;;;;21.20;38.01;100434.06;4913758;28;8435;-82
2023/06/12 03:31:25;;;;;;;;;;;;;;;21.21;37.80;100426.22;4936766;28;6903;-82
2023/06/12 03:33:50;;;;;;;;;;;;;;;21.26;37.46;100426.25;4929577;28;7184;-83
2023/06/12 03:36:37;;;;;;;;;;;;;;;21.28;37.58;100421.91;4922663;28;8417;-84
2023/06/12 03:39:09;;;;;;;;;;;;;;;21.29;37.81;100421.03;4938626;28;6858;-85
2023/06/12 03:41:35;;;;;;;;;;;;;;;21.35;37.72;100426.28;4906521;28;6839;-86
2023/06/12 03:44:01;;;;;;;;;;;;;;;21.36;37.48;100428.03;4937495;28;7160;-85
2023/06/12 03:46:32;;;;;;;;;;;;;;;21.39;37.58;100426.28;4936482;28;6954;-85
2023/06/12 03:49:02;;;;;;;;;;;;;;;21.45;37.37;100432.44;4937489;28;7158;-85
2023/06/12 03:51:28;;;;;;;;;;;;;;;21.47;37.27;100425.47;4936625;28;7191;-85
2023/06/12 03:53:56;;;;;;;;;;;;;;;21.53;37.30;100436.78;4931207;28;8409;-85
2023/06/12 03:56:27;;;;;;;;;;;;;;;21.56;37.17;100423.75;4941219;28;6962;-87
2023/06/12 03:59:05;;;;;;;;;;;;;;;21.55;37.53;100428.09;4935346;28;6839;-86
2023/06/12 04:01:30;;;;;;;;;;;;;;;21.58;37.41;100442.88;4937789;28;7001;-86
2023/06/12 04:04:00;;;;;;;;;;;;;;;21.60;37.38;100438.53;4921836;29;7024;-85
2023/06/12 04:06:25;;;;;;;;;;;;;;;21.59;37.42;100434.19;4937608;28;6816;-85
2023/06/12 04:08:53;;;;;;;;;;;;;;;21.55;37.57;100440.28;4913798;28;6837;-86
2023/06/12 04:11:22;;;;;;;;;;;;;;;21.51;37.88;100442.00;4935339;28;7293;-85
2023/06/12 04:13:48;;;;;;;;;;;;;;;21.49;37.80;100444.59;4937871;28;7345;-85
2023/06/12 04:16:18;;;;;;;;;;;;;;;21.50;38.44;100441.13;4937633;28;7135;-84
2023/06/12 04:18:45;;;;;;;;;;;;;;;21.63;38.74;100446.38;4938744;28;8493;-84
2023/06/12 04:21:12;;;;;;;;;;;;;;;21.87;38.49;100442.13;4921804;28;6975;-84
2023/06/12 04:23:41;;;;;;;;;;;;;;;22.16;38.50;100443.91;4938848;28;7227;-85
2023/06/12 04:26:10;;;;;;;;;;;;;;;22.49;38.43;100450.00;4929467;28;8455;-85
2023/06/12 04:28:36;;;;;;;;;;;;;;;22.80;38.70;100441.28;4938289;28;7013;-84
2023/06/12 04:31:05;;;;;;;;;;;;;;;23.14;38.10;100442.06;4934600;28;6812;-83
2023/06/12 04:33:35;;;;;;;;;;;;;;;23.51;38.21;100456.75;4940737;28;8447;-82
2023/06/12 04:36:02;;;;;;;;;;;;;;;23.81;37.93;100440.91;4938605;28;6947;-81
2023/06/12 04:38:31;;;;;;;;;;;;;;;24.12;37.00;100438.09;4927326;28;7041;-86
2023/06/12 04:41:11;;;;;;;;;;;;;;;24.48;36.52;100432.56;4925273;28;7062;-83
2023/06/12 04:43:39;;;;;;;;;;;;;;;24.80;35.89;100440.13;4922750;29;6963;-85
2023/06/12 04:46:07;;;;;;;;;;;;;;;25.04;35.92;100427.66;4938136;28;6954;-83
2023/06/12 04:48:33;;;;;;;;;;;;;;;25.33;35.67;100436.91;4934658;28;6915;-85
2023/06/12 04:51:05;;;;;;;;;;;;;;;25.61;35.51;100435.72;4926464;29;6920;-85
2023/06/12 04:53:31;;;;;;;;;;;;;;;25.90;35.15;100440.53;4936310;28;6962;-84
2023/06/12 04:55:58;;;;;;;;;;;;;;;26.07;34.50;100432.41;4926960;29;6942;-83
2023/06/12 04:58:24;;;;;;;;;;;;;;;26.31;34.36;100429.44;4935055;28;7305;-83
2023/06/12 05:00:50;;;;;;;;;;;;;;;26.52;34.50;100433.44;4938573;28;7140;-83
2023/06/12 05:03:17;;;;;;;;;;;;;;;26.74;34.16;100431.25;4936306;28;6780;-83
2023/06/12 05:05:45;;;;;;;;;;;;;;;26.98;33.83;100439.63;4937249;28;6839;-84
2023/06/12 05:08:12;;;;;;;;;;;;;;;27.15;33.33;100434.00;4938533;28;7167;-84
2023/06/12 05:10:39;;;;;;;;;;;;;;;27.36;33.51;100444.13;4933984;29;7781;-83
2023/06/12 05:13:04;;;;;;;;;;;;;;;27.54;32.75;100437.59;4916930;29;7677;-83
2023/06/12 05:15:30;;;;;;;;;;;;;;;27.68;33.24;100439.94;4926804;28;7007;-84
2023/06/12 05:17:56;;;;;;;;;;;;;;;27.81;32.73;100437.91;4942395;28;7104;-86
2023/06/12 05:20:30;;;;;;;;;;;;;;;27.97;32.53;100438.41;4952500;28;7261;-86
2023/06/12 05:22:55;;;;;;;;;;;;;;;28.14;32.74;100430.06;4936511;28;6817;-87
2023/06/12 05:25:28;;;;;;;;;;;;;;;28.30;32.48;100437.63;4943098;28;6955;-83
2023/06/12 05:27:55;;;;;;;;;;;;;;;28.41;32.18;100439.09;4926861;28;6844;-83
2023/06/12 05:30:21;;;;;;;;;;;;;;;28.55;31.87;100440.50;4938103;28;6812;-83
2023/06/12 05:32:46;;;;;;;;;;;;;;;28.59;31.33;100436.00;4941596;28;7259;-82
2023/06/12 05:35:13;;;;;;;;;;;;;;;28.63;31.42;100437.66;4927341;28;7351;-85
2023/06/12 05:37:38;;;;;;;;;;;;;;;28.66;31.42;100443.72;4926280;28;6970;-83
2023/06/12 05:40:12;;;;;;;;;;;;;;;28.73;31.46;100435.66;4945298;28;6958;-85
2023/06/12 05:42:59;;;;;;;;;;;;;;;28.80;31.36;100431.94;4930402;28;7180;-84
2023/06/12 05:45:24;;;;;;;;;;;;;;;28.92;31.71;100434.25;4933108;28;6920;-83
2023/06/12 05:47:53;;;;;;;;;;;;;;;29.04;31.52;100435.69;4941577;28;6951;-83
2023/06/12 05:50:18;;;;;;;;;;;;;;;29.09;31.58;100438.19;4940727;28;6983;-83
2023/06/12 05:52:44;;;;;;;;;;;;;;;29.10;30.95;100429.38;4934196;28;6941;-83
2023/06/12 05:55:10;;;;;;;;;;;;;;;29.14;31.56;100430.16;4941922;28;6956;-83
2023/06/12 05:57:38;;;;;;;;;;;;;;;29.14;31.16;100433.63;4935917;28;6985;-83
2023/06/12 06:00:09;;;;;;;;;;;;;;;29.02;31.10;100434.88;4926185;28;6976;-83
2023/06/12 06:02:56;;;;;;;;;;;;;;;28.83;30.81;100434.50;4917374;28;11852;-84
2023/06/12 06:05:24;;;;;;;;;;;;;;;28.53;30.91;100437.91;4941775;28;7047;-84
2023/06/12 06:07:55;;;;;;;;;;;;;;;28.21;30.48;100436.97;4941193;28;7185;-84
2023/06/12 06:10:31;;;;;;;;;;;;;;;27.91;30.91;100444.69;4935644;28;6990;-84
2023/06/12 06:13:03;;;;;;;;;;;;;;;27.60;30.97;100434.88;4933342;28;6995;-85
2023/06/12 06:15:31;;;;;;;;;;;;;;;27.36;31.25;100436.25;4932692;28;6982;-84
2023/06/12 06:18:06;;;;;;;;;;;;;;;27.16;31.64;100434.91;4944487;28;6829;-84
2023/06/12 06:23:25;;;;;;;;;;;;;;;26.83;32.13;100439.88;4943951;28;7007;-84
2023/06/12 06:26:05;;;;;;;;;;;;;;;26.71;32.35;100441.84;4927084;28;6971;-85
2023/06/12 06:28:37;;;;;;;;;;;;;;;26.62;32.58;100444.66;4934525;28;6848;-84
2023/06/12 06:31:16;;;;;;;;;;;;;;;26.53;32.82;100439.56;4938089;28;7154;-87
2023/06/12 06:33:49;;;;;;;;;;;;;;;26.50;33.28;100448.34;4930465;28;7044;-87
2023/06/12 06:36:15;;;;;;;;;;;;;;;26.47;33.36;100444.03;4934208;28;6990;-87
2023/06/12 06:38:41;;;;;;;;;;;;;;;26.47;33.15;100444.03;4943886;28;7107;-86
2023/06/12 06:41:06;;;;;;;;;;;;;;;26.45;33.68;100440.53;4947639;28;6820;-83
2023/06/12 06:43:32;;;;;;;;;;;;;;;26.47;33.71;100440.53;4938166;28;7846;-83
2023/06/12 06:45:58;;;;;;;;;;;;;;;26.52;33.66;100450.97;4947101;28;7259;-84
2023/06/12 06:48:27;;;;;;;;;;;;;;;26.52;33.77;100443.06;4930018;28;7183;-84
2023/06/12 06:50:52;;;;;;;;;;;;;;;26.58;33.90;100450.88;4930582;28;7217;-86
2023/06/12 06:53:18;;;;;;;;;;;;;;;26.64;33.95;100457.78;4938127;28;6834;-84
2023/06/12 06:55:44;;;;;;;;;;;;;;;26.85;33.83;100454.72;4943646;28;7956;-83
2023/06/12 06:58:10;;;;;;;;;;;;;;;27.10;33.58;100453.41;4931225;28;6950;-84
2023/06/12 07:00:37;;;;;;;;;;;;;;;27.48;34.01;100450.91;4916497;28;7195;-84
2023/06/12 07:03:03;;;;;;;;;;;;;;;27.91;33.90;100443.81;4932492;28;7302;-84
2023/06/12 07:05:29;;;;;;;;;;;;;;;28.36;33.76;100443.59;4940366;28;6943;-84
2023/06/12 07:07:56;;;;;;;;;;;;;;;28.79;32.30;100443.41;4936173;28;6882;-84
2023/06/12 07:10:22;;;;;;;;;;;;;;;29.21;32.04;100445.75;4944252;28;7183;-85
2023/06/12 07:12:56;;;;;;;;;;;;;;;29.64;31.84;100438.34;4946378;28;6978;-84
2023/06/12 07:15:22;;;;;;;;;;;;;;;30.11;31.07;100441.28;4940581;28;6886;-84
2023/06/12 07:17:47;;;;;;;;;;;;;;;30.51;30.72;100445.22;4927132;28;6963;-84
2023/06/12 07:20:13;;;;;;;;;;;;;;;30.89;30.30;100444.81;4942883;28;7249;-84
2023/06/12 07:22:39;;;;;;;;;;;;;;;31.20;29.78;100438.38;4930796;28;7125;-84
2023/06/12 07:25:05;;;;;;;;;;;;;;;31.47;29.42;100437.41;4936615;28;6983;-85
2023/06/12 07:27:31;;;;;;;;;;;;;;;31.73;29.01;100431.94;4933251;28;6964;-84
2023/06/12 07:29:57;;;;;;;;;;;;;;;31.94;29.39;100429.38;4932200;28;6838;-84
2023/06/12 07:32:22;;;;;;;;;;;;;;;32.14;28.97;100432.97;4940305;28;7249;-83
2023/06/12 07:34:48;;;;;;;;;;;;;;;32.35;28.97;100427.69;4927311;28;6943;-84
2023/06/12 07:37:20;;;;;;;;;;;;;;;32.55;28.99;100430.38;4940301;28;6975;-84
2023/06/12 07:39:47;;;;;;;;;;;;;;;32.82;29.05;100432.72;4939483;28;6963;-83
2023/06/12 07:42:13;;;;;;;;;;;;;;;33.08;28.04;100428.06;4944015;28;6987;-84
2023/06/12 07:44:40;;;;;;;;;;;;;;;33.25;27.32;100421.09;4944045;28;7240;-84
2023/06/12 07:47:06;;;;;;;;;;;;;;;33.35;27.30;100421.50;4942998;28;7270;-85
2023/06/12 07:49:33;;;;;;;;;;;;;;;33.41;26.92;100421.22;4941816;28;6882;-86
2023/06/12 07:51:58;;;;;;;;;;;;;;;33.44;26.80;100426.38;4941535;28;7223;-84
2023/06/12 07:54:24;;;;;;;;;;;;;;;33.49;26.82;100426.19;4932551;28;7066;-84
2023/06/12 07:56:53;;;;;;;;;;;;;;;33.59;26.79;100423.97;4927006;28;7051;-84
2023/06/12 07:59:20;;;;;;;;;;;;;;;33.70;26.06;100426.09;4927279;28;6913;-84
2023/06/12 08:01:46;;;;;;;;;;;;;;;33.77;26.22;100416.88;4924873;28;6962;-84
2023/06/12 08:04:30;;;;;;;;;;;;;;;33.91;26.12;100425.03;4940775;28;6795;-84
2023/06/12 08:06:56;;;;;;;;;;;;;;;34.03;25.90;100417.41;4944378;28;6785;-85
2023/06/12 08:09:21;;;;;;;;;;;;;;;34.18;25.92;100411.28;4931756;28;6949;-84
2023/06/12 08:11:47;;;;;;;;;;;;;;;34.30;25.48;100419.59;4941259;28;6946;-83
2023/06/12 08:14:13;;;;;;;;;;;;;;;34.40;25.41;100419.97;4924177;28;7207;-84
2023/06/12 08:16:46;;;;;;;;;;;;;;;34.57;25.45;100420.00;4937319;28;6804;-84
2023/06/12 08:19:12;;;;;;;;;;;;;;;34.77;25.54;100410.09;4940506;28;7259;-86
2023/06/12 08:21:39;;;;;;;;;;;;;;;34.98;25.11;100413.38;4940172;28;6981;-84
2023/06/12 08:24:10;;;;;;;;;;;;;;;35.28;25.17;100415.31;4919559;28;7285;-84
2023/06/12 08:26:36;;;;;;;;;;;;;;;35.55;25.09;100409.41;4921113;28;7049;-84
2023/06/12 08:29:03;;;;;;;;;;;;;;;35.74;24.51;100400.34;4941735;28;6946;-84
2023/06/12 08:31:29;;;;;;;;;;;;;;;35.89;24.78;100403.06;4937979;28;7197;-85
2023/06/12 08:33:54;;;;;;;;;;;;;;;36.09;24.53;100402.75;4929335;28;6959;-84
2023/06/12 08:36:25;;;;;;;;;;;;;;;36.30;23.84;100399.75;4938212;28;8505;-81
2023/06/12 08:39:07;;;;;;;;;;;;;;;36.54;24.21;100405.38;4934365;28;7208;-84
2023/06/12 08:42:08;;;;;;;;;;;;;;;36.83;23.46;100400.06;4923389;29;7154;-82
2023/06/12 08:44:35;;;;;;;;;;;;;;;37.03;22.85;100397.94;4941631;28;7384;-82
2023/06/12 08:47:03;;;;;;;;;;;;;;;37.17;22.97;100399.75;4921911;29;7693;-82
2023/06/12 08:49:34;;;;;;;;;;;;;;;37.29;22.85;100397.28;4937664;28;8782;-82
2023/06/12 08:52:01;;;;;;;;;;;;;;;37.40;22.81;100393.88;4944016;28;6826;-82
2023/06/12 08:54:27;;;;;;;;;;;;;;;37.60;22.77;100395.28;4945501;28;6833;-81
2023/06/12 08:56:58;;;;;;;;;;;;;;;37.85;22.46;100396.28;4945085;28;6800;-82
2023/06/12 08:59:24;;;;;;;;;;;;;;;38.10;22.30;100395.53;4944213;28;7400;-83
2023/06/12 09:01:53;;;;;;;;;;;;;;;38.28;21.82;100388.03;4946200;28;6784;-83
2023/06/12 09:04:46;;;;;;;;;;;;;;;38.49;21.87;100395.56;4947403;28;7007;-83
2023/06/12 09:07:17;;;;;;;;;;;;;;;38.77;21.71;100393.59;4945407;28;6846;-83
2023/06/12 09:09:46;;;;;;;;;;;;;;;39.06;21.12;100392.47;4934050;28;8690;-82
2023/06/12 09:12:14;;;;;;;;;;;;;;;39.22;20.93;100392.22;4938126;28;8435;-82
2023/06/12 09:14:44;;;;;;;;;;;;;;;39.39;20.79;100390.97;4940414;28;8843;-85
2023/06/12 09:17:10;;;;;;;;;;;;;;;39.66;20.46;100390.72;4930616;28;8669;-84
2023/06/12 09:19:48;;;;;;;;;;;;;;;40.03;20.56;100388.94;4944714;28;6776;-82
2023/06/12 09:22:14;;;;;;;;;;;;;;;40.28;20.23;100379.81;4944030;28;7378;-82
2023/06/12 09:24:41;;;;;;;;;;;;;;;40.45;20.16;100386.56;4945551;28;7155;-82
2023/06/12 09:27:07;;;;;;;;;;;;;;;40.63;19.86;100391.44;4946529;28;6963;-82
2023/06/12 09:29:35;;;;;;;;;;;;;;;40.72;19.75;100385.34;4943493;28;8514;-82
2023/06/12 09:32:04;;;;;;;;;;;;;;;40.68;19.25;100389.25;4945306;28;9009;-82
2023/06/12 09:34:34;;;;;;;;;;;;;;;40.70;19.25;100389.97;4947999;28;6812;-83
2023/06/12 09:37:08;;;;;;;;;;;;;;;40.82;19.41;100394.38;4928751;28;6920;-82
2023/06/12 09:39:34;;;;;;;;;;;;;;;40.95;19.01;100385.31;4937740;28;7014;-83
2023/06/12 09:42:02;;;;;;;;;;;;;;;41.02;19.55;100389.22;4943956;28;6980;-84
2023/06/12 09:44:33;;;;;;;;;;;;;;;41.21;19.24;100393.97;4944325;28;7171;-83
2023/06/12 09:47:04;;;;;;;;;;;;;;;41.39;18.81;100389.88;4932442;28;8519;-83
2023/06/12 09:49:34;;;;;;;;;;;;;;;41.48;18.55;100386.44;4930231;28;8512;-83
2023/06/12 09:52:03;;;;;;;;;;;;;;;41.47;18.42;100384.72;4945639;28;6812;-83
2023/06/12 09:54:31;;;;;;;;;;;;;;;41.40;18.64;100388.91;4931630;28;8339;-82
2023/06/12 09:57:00;;;;;;;;;;;;;;;41.36;18.87;100393.69;4941516;28;8488;-82
2023/06/12 09:59:31;;;;;;;;;;;;;;;41.45;18.64;100394.75;4944382;28;8740;-82
2023/06/12 10:02:14;;;;;;;;;;;;;;;41.45;18.46;100390.22;4930515;28;8461;-83
2023/06/12 10:05:03;;;;;;;;;;;;;;;41.53;18.30;100389.59;4924956;28;8478;-82
2023/06/12 10:07:40;;;;;;;;;;;;;;;41.55;18.67;100387.63;4933069;28;6923;-83
2023/06/12 10:10:08;;;;;;;;;;;;;;;41.58;18.88;100390.03;4940666;28;6836;-82
2023/06/12 10:12:36;;;;;;;;;;;;;;;41.63;18.55;100387.84;4939416;28;6975;-81
2023/06/12 10:15:03;;;;;;;;;;;;;;;41.70;18.59;100387.34;4943756;28;7172;-83
2023/06/12 10:17:30;;;;;;;;;;;;;;;41.71;18.50;100384.53;4942993;28;8462;-81
2023/06/12 10:19:57;;;;;;;;;;;;;;;41.61;18.41;100380.88;4926787;28;8394;-81
2023/06/12 10:22:23;;;;;;;;;;;;;;;41.55;18.56;100382.25;4941504;28;7160;-82
2023/06/12 10:24:49;;;;;;;;;;;;;;;41.57;18.66;100379.41;4930216;28;7215;-82
2023/06/12 10:27:18;;;;;;;;;;;;;;;41.71;18.20;100378.28;4941672;28;6957;-82
2023/06/12 10:29:44;;;;;;;;;;;;;;;41.76;18.35;100376.91;4942870;28;6968;-82
2023/06/12 10:32:14;;;;;;;;;;;;;;;41.80;18.08;100372.09;4940900;28;7178;-82
2023/06/12 10:34:42;;;;;;;;;;;;;;;41.91;18.33;100379.28;4928769;28;7450;-84
2023/06/12 10:37:47;;;;;;;;;;;;;;;41.88;17.89;100366.94;4912899;28;7169;-82
2023/06/12 10:40:21;;;;;;;;;;;;;;;41.84;18.11;100373.56;4926820;28;7100;-82
2023/06/12 10:42:48;;;;;;;;;;;;;;;41.78;18.13;100360.63;4935301;28;7000;-82
2023/06/12 10:45:20;;;;;;;;;;;;;;;41.84;17.84;100368.19;4939391;28;8609;-83
2023/06/12 10:48:07;;;;;;;;;;;;;;;41.95;18.24;100358.34;4939343;28;8967;-82
2023/06/12 10:50:36;;;;;;;;;;;;;;;42.15;18.12;100349.41;4940106;28;6987;-84
2023/06/12 10:53:14;;;;;;;;;;;;;;;42.50;18.15;100351.88;4940221;28;6793;-84
2023/06/12 10:55:42;;;;;;;;;;;;;;;42.84;17.56;100351.50;4942501;28;8532;-84
2023/06/12 10:58:18;;;;;;;;;;;;;;;42.99;17.22;100354.69;4942177;28;7243;-85
2023/06/12 11:00:52;;;;;;;;;;;;;;;43.01;17.35;100352.69;4934942;28;6995;-84
2023/06/12 11:03:28;;;;;;;;;;;;;;;43.10;17.24;100351.03;4940002;28;7419;-84
2023/06/12 11:06:00;;;;;;;;;;;;;;;43.22;16.74;100352.59;4923942;28;6906;-85
2023/06/12 11:08:32;;;;;;;;;;;;;;;43.22;16.29;100352.59;4924677;28;7132;-83
2023/06/12 11:10:58;;;;;;;;;;;;;;;42.97;15.85;100348.59;4934647;28;7371;-83
2023/06/12 11:13:26;;;;;;;;;;;;;;;42.46;16.19;100349.41;4936037;28;6788;-83
2023/06/12 11:15:54;;;;;;;;;;;;;;;42.22;16.47;100349.72;4938497;28;7428;-83
2023/06/12 11:18:20;;;;;;;;;;;;;;;42.11;16.64;100347.13;4923221;28;8436;-82
2023/06/12 11:20:56;;;;;;;;;;;;;;;42.12;16.97;100338.94;4934129;28;8552;-83
2023/06/12 11:23:31;;;;;;;;;;;;;;;42.29;16.81;100341.97;4951239;28;8357;-82
2023/06/12 11:25:57;;;;;;;;;;;;;;;42.54;16.84;100347.91;4937410;28;8611;-82
2023/06/12 11:28:26;;;;;;;;;;;;;;;42.84;16.53;100343.44;4941557;28;7071;-83
2023/06/12 11:30:57;;;;;;;;;;;;;;;43.03;16.10;100337.25;4940014;28;6796;-82
2023/06/12 11:33:25;;;;;;;;;;;;;;;43.15;16.08;100348.75;4936949;28;8496;-82
2023/06/12 11:35:59;;;;;;;;;;;;;;;43.29;16.03;100337.56;4928163;28;8466;-82
2023/06/12 11:38:25;;;;;;;;;;;;;;;43.54;15.87;100342.53;4923523;28;6860;-83
2023/06/12 11:40:55;;;;;;;;;;;;;;;43.60;15.46;100327.63;4939049;28;6864;-84
2023/06/12 11:43:23;;;;;;;;;;;;;;;43.59;15.14;100329.44;4923895;28;7168;-84
2023/06/12 11:45:49;;;;;;;;;;;;;;;43.60;15.25;100330.31;4936256;28;6812;-83
2023/06/12 11:48:17;;;;;;;;;;;;;;;43.62;15.24;100326.47;4937702;28;8513;-83
2023/06/12 11:50:50;;;;;;;;;;;;;;;43.71;14.88;100327.44;4925944;28;7645;-84
2023/06/12 11:53:18;;;;;;;;;;;;;;;43.81;14.55;100331.00;4927863;28;8617;-83
2023/06/12 11:55:56;;;;;;;;;;;;;;;43.87;14.83;100326.03;4929151;28;7023;-84
2023/06/12 11:58:35;;;;;;;;;;;;;;;44.01;14.81;100324.72;4940101;28;6824;-83
2023/06/12 12:01:22;;;;;;;;;;;;;;;44.30;14.29;100319.19;4938266;28;6812;-83
2023/06/12 12:03:48;;;;;;;;;;;;;;;44.55;14.42;100316.81;4935441;28;7192;-83
2023/06/12 12:06:15;;;;;;;;;;;;;;;44.70;14.08;100313.59;4926561;28;8480;-83
2023/06/12 12:08:41;;;;;;;;;;;;;;;44.66;13.82;100311.22;4925926;28;8485;-83
2023/06/12 12:11:22;;;;;;;;;;;;;;;44.61;14.03;100315.38;4919110;28;8618;-83
2023/06/12 12:13:56;;;;;;;;;;;;;;;44.52;13.63;100312.53;4935783;28;8416;-82
2023/06/12 12:16:26;;;;;;;;;;;;;;;44.42;13.69;100322.56;4926801;28;6800;-83
2023/06/12 12:18:52;;;;;;;;;;;;;;;44.36;13.50;100310.50;4911797;28;8384;-82
2023/06/12 12:21:18;;;;;;;;;;;;;;;44.37;13.76;100314.91;4923986;28;7486;-82
2023/06/12 12:23:45;;;;;;;;;;;;;;;44.39;13.79;100309.38;4940534;28;7013;-84
2023/06/12 12:26:12;;;;;;;;;;;;;;;44.43;13.50;100312.59;4937834;28;7201;-83
2023/06/12 12:28:38;;;;;;;;;;;;;;;44.36;13.37;100307.81;4938556;28;6852;-82
2023/06/12 12:31:05;;;;;;;;;;;;;;;44.24;13.63;100306.31;4939829;28;6792;-82
2023/06/12 12:33:31;;;;;;;;;;;;;;;44.02;13.41;100300.25;4934497;28;8714;-83
2023/06/12 12:36:02;;;;;;;;;;;;;;;43.76;13.36;100314.41;4921242;28;7160;-82
2023/06/12 12:38:28;;;;;;;;;;;;;;;43.47;13.17;100312.59;4938362;28;6792;-80
2023/06/12 12:40:54;;;;;;;;;;;;;;;43.13;13.87;100318.38;4942897;28;7208;-80
2023/06/12 12:43:20;;;;;;;;;;;;;;;42.92;14.34;100310.38;4940182;28;6780;-80
2023/06/12 12:45:45;;;;;;;;;;;;;;;42.93;14.07;100315.69;4944243;28;6957;-80
2023/06/12 12:48:11;;;;;;;;;;;;;;;42.94;13.83;100311.16;4930661;29;6800;-80
2023/06/12 12:50:38;;;;;;;;;;;;;;;42.91;13.94;100298.78;4941584;28;6788;-80
2023/06/12 12:53:04;;;;;;;;;;;;;;;42.69;14.10;100306.13;4942634;28;6792;-80
2023/06/12 12:55:35;;;;;;;;;;;;;;;42.53;14.07;100295.03;4927690;28;8282;-81
2023/06/12 12:58:00;;;;;;;;;;;;;;;42.39;13.80;100299.75;4923226;28;8781;-83
2023/06/12 13:00:26;;;;;;;;;;;;;;;42.20;13.81;100297.88;4940473;28;7168;-79